createdAt,value
2022-12-18T00:00:57.403Z,91.27
2022-12-18T00:06:17.745Z,90.86
2022-12-18T00:11:23.195Z,91.22
2022-12-18T00:16:27.103Z,90.42
2022-12-18T00:21:46.469Z,90.15
2022-12-18T00:26:48.951Z,90.41
2022-12-18T00:31:51.638Z,90.79
2022-12-18T00:36:54.341Z,90.79
2022-12-18T00:41:59.838Z,90.89
2022-12-18T00:47:02.375Z,91.33
2022-12-18T00:52:05.452Z,91.29
2022-12-18T00:57:07.951Z,91.41
2022-12-18T01:02:10.608Z,91.48
2022-12-18T01:07:13.144Z,91.42
2022-12-18T01:12:15.815Z,91.35
2022-12-18T01:17:18.423Z,91.41
2022-12-18T01:22:20.949Z,90.70
2022-12-18T01:27:23.474Z,90.45
2022-12-18T01:32:25.993Z,89.58
2022-12-18T01:37:28.597Z,89.26
2022-12-18T01:42:31.140Z,89.41
2022-12-18T01:47:37.590Z,89.78
2022-12-18T01:52:43.210Z,90.43
2022-12-18T01:57:45.974Z,90.67
2022-12-18T02:02:49.035Z,90.67
2022-12-18T02:08:19.297Z,90.53
2022-12-18T02:13:33.280Z,90.64
2022-12-18T02:18:45.129Z,90.76
2022-12-18T02:23:50.539Z,90.65
2022-12-18T02:28:59.613Z,90.32
2022-12-18T02:34:05.737Z,90.61
2022-12-18T02:39:09.952Z,90.77
2022-12-18T02:44:14.522Z,90.96
2022-12-18T02:49:23.072Z,91.23
2022-12-18T02:54:32.499Z,90.66
2022-12-18T02:59:43.968Z,90.27
2022-12-18T03:04:55.482Z,90.12
2022-12-18T03:09:59.092Z,89.63
2022-12-18T03:15:15.939Z,90.09
2022-12-18T03:20:22.994Z,90.02
2022-12-18T03:25:27.653Z,89.94
2022-12-18T03:30:34.855Z,89.90
2022-12-18T03:35:41.127Z,90.09
2022-12-18T03:40:51.851Z,90.11
2022-12-18T03:46:03.878Z,90.69
2022-12-18T03:51:10.964Z,90.90
2022-12-18T03:56:17.092Z,91.28
2022-12-18T04:01:21.899Z,90.74
2022-12-18T04:06:24.556Z,90.28
2022-12-18T04:11:27.316Z,90.59
2022-12-18T04:16:30.103Z,91.15
2022-12-18T04:21:32.581Z,91.30
2022-12-18T04:26:35.193Z,91.29
2022-12-18T04:31:37.878Z,90.17
2022-12-18T04:36:40.402Z,90.70
2022-12-18T04:41:42.863Z,90.57
2022-12-18T04:46:45.434Z,90.78
2022-12-18T04:51:48.000Z,90.76
2022-12-18T04:56:50.543Z,90.88
2022-12-18T05:01:53.241Z,91.22
2022-12-18T05:06:55.868Z,91.61
2022-12-18T05:11:58.344Z,91.76
2022-12-18T05:17:01.408Z,91.87
2022-12-18T05:22:04.039Z,91.82
2022-12-18T05:27:06.566Z,91.93
2022-12-18T05:32:09.035Z,92.45
2022-12-18T05:37:11.526Z,92.20
2022-12-18T05:42:13.996Z,92.16
2022-12-18T05:47:16.747Z,91.83
2022-12-18T05:52:19.307Z,91.78
2022-12-18T05:57:21.823Z,91.75
2022-12-18T06:02:24.430Z,91.84
2022-12-18T06:07:27.141Z,92.02
2022-12-18T06:12:29.615Z,92.09
2022-12-18T06:17:33.494Z,92.08
2022-12-18T06:22:36.096Z,92.31
2022-12-18T06:27:38.653Z,92.30
2022-12-18T06:32:41.231Z,92.63
2022-12-18T06:37:43.736Z,92.72
2022-12-18T06:42:46.434Z,93.18
2022-12-18T06:47:48.889Z,93.59
2022-12-18T06:52:51.403Z,93.34
2022-12-18T06:57:53.932Z,93.14
2022-12-18T07:02:56.461Z,92.68
2022-12-18T07:07:59.707Z,92.51
2022-12-18T07:13:02.183Z,92.29
2022-12-18T07:18:04.794Z,92.67
2022-12-18T07:23:07.612Z,92.83
2022-12-18T07:28:15.627Z,92.29
2022-12-18T07:33:19.760Z,92.08
2022-12-18T07:38:22.951Z,91.99
2022-12-18T07:43:25.398Z,91.77
2022-12-18T07:48:29.425Z,91.77
2022-12-18T07:53:33.337Z,91.28
2022-12-18T07:58:36.533Z,91.22
2022-12-18T08:03:40.983Z,91.09
2022-12-18T08:08:45.207Z,90.77
2022-12-18T08:13:47.662Z,90.85
2022-12-18T08:18:50.632Z,90.09
2022-12-18T08:23:54.854Z,90.18
2022-12-18T08:28:59.457Z,89.14
2022-12-18T08:34:02.007Z,88.36
2022-12-18T08:39:04.520Z,88.74
2022-12-18T08:44:11.542Z,88.65
2022-12-18T08:49:14.238Z,87.67
2022-12-18T08:54:16.702Z,87.78
2022-12-18T08:59:20.786Z,86.77
2022-12-18T09:04:23.558Z,86.56
2022-12-18T09:09:26.048Z,86.06
2022-12-18T09:14:28.550Z,84.18
2022-12-18T09:19:31.241Z,84.39
2022-12-18T09:24:33.782Z,84.94
2022-12-18T09:29:36.242Z,84.48
2022-12-18T09:34:38.729Z,84.70
2022-12-18T09:39:41.210Z,83.89
2022-12-18T09:44:48.935Z,83.96
2022-12-18T09:49:57.409Z,83.45
2022-12-18T09:55:05.804Z,82.31
2022-12-18T10:00:19.573Z,81.34
2022-12-18T10:05:34.934Z,81.47
2022-12-18T10:10:49.696Z,81.23
2022-12-18T10:15:59.372Z,81.21
2022-12-18T10:21:12.769Z,82.39
2022-12-18T10:26:15.421Z,82.03
2022-12-18T10:31:24.758Z,81.98
2022-12-18T10:36:27.720Z,80.99
2022-12-18T10:41:31.824Z,79.17
2022-12-18T10:46:34.464Z,79.02
2022-12-18T10:51:38.622Z,80.03
2022-12-18T10:56:41.678Z,80.67
2022-12-18T11:01:50.452Z,80.25
2022-12-18T11:06:54.784Z,79.58
2022-12-18T11:12:00.436Z,78.83
2022-12-18T11:17:25.428Z,78.87
2022-12-18T11:22:32.316Z,78.37
2022-12-18T11:27:34.827Z,78.08
2022-12-18T11:32:40.284Z,78.33
2022-12-18T11:37:47.064Z,79.31
2022-12-18T11:42:55.668Z,79.18
2022-12-18T11:48:01.393Z,79.39
2022-12-18T11:53:06.265Z,78.63
2022-12-18T11:58:18.275Z,78.80
2022-12-18T12:03:40.111Z,79.27
2022-12-18T12:08:57.268Z,79.17
2022-12-18T12:14:02.663Z,79.28
2022-12-18T12:19:08.074Z,79.78
2022-12-18T12:24:10.500Z,79.36
2022-12-18T12:29:21.299Z,79.52
2022-12-18T12:34:35.579Z,79.91
2022-12-18T12:39:41.635Z,80.22
2022-12-18T12:44:56.209Z,80.12
2022-12-18T12:50:08.089Z,80.46
2022-12-18T12:55:16.951Z,80.47
2022-12-18T13:00:20.965Z,80.77
2022-12-18T13:05:30.029Z,81.28
2022-12-18T13:10:34.008Z,81.17
2022-12-18T13:15:41.969Z,81.17
2022-12-18T13:20:53.715Z,81.42
2022-12-18T13:26:28.146Z,82.05
2022-12-18T13:31:37.514Z,82.13
2022-12-18T13:36:40.418Z,82.20
2022-12-18T13:41:43.637Z,82.66
2022-12-18T13:46:47.799Z,82.93
2022-12-18T13:51:52.700Z,83.18
2022-12-18T13:56:55.655Z,83.23
2022-12-18T14:02:02.996Z,83.22
2022-12-18T14:07:11.598Z,83.30
2022-12-18T14:12:25.648Z,83.82
2022-12-18T14:17:28.485Z,84.28
2022-12-18T14:22:31.754Z,85.08
2022-12-18T14:27:39.854Z,85.93
2022-12-18T14:32:42.328Z,86.84
2022-12-18T14:37:44.811Z,87.93
2022-12-18T14:42:47.378Z,88.50
2022-12-18T14:47:49.874Z,88.66
2022-12-18T14:52:53.335Z,88.53
2022-12-18T14:57:57.199Z,88.69
2022-12-18T15:02:59.841Z,88.88
2022-12-18T15:08:03.521Z,89.20
2022-12-18T15:13:06.319Z,89.16
2022-12-18T15:18:08.760Z,89.70
2022-12-18T15:23:16.080Z,89.59
2022-12-18T15:28:24.662Z,89.92
2022-12-18T15:33:31.937Z,89.57
2022-12-18T15:38:34.462Z,89.06
2022-12-18T15:43:39.151Z,88.95
2022-12-18T15:48:45.799Z,89.06
2022-12-18T15:53:51.097Z,88.72
2022-12-18T15:58:53.585Z,88.77
2022-12-18T16:03:57.033Z,88.15
2022-12-18T16:08:59.774Z,88.27
2022-12-18T16:14:02.314Z,88.14
2022-12-18T16:19:05.029Z,88.40
2022-12-18T16:24:15.796Z,88.61
2022-12-18T16:29:19.208Z,89.01
2022-12-18T16:34:28.755Z,89.12
2022-12-18T16:39:31.758Z,89.25
2022-12-18T16:44:34.827Z,89.53
2022-12-18T16:49:38.454Z,89.58
2022-12-18T16:54:40.964Z,89.69
2022-12-18T16:59:43.800Z,89.73
2022-12-18T17:04:47.309Z,89.69
2022-12-18T17:09:52.005Z,89.31
2022-12-18T17:14:54.512Z,89.22
2022-12-18T17:19:57.076Z,89.18
2022-12-18T17:24:59.573Z,89.59
2022-12-18T17:30:02.582Z,89.58
2022-12-18T17:35:07.373Z,89.16
2022-12-18T17:40:10.576Z,88.88
2022-12-18T17:45:13.046Z,88.93
2022-12-18T17:50:15.690Z,89.17
2022-12-18T17:55:18.319Z,89.19
2022-12-18T18:01:38.518Z,89.33
2022-12-18T18:06:53.182Z,89.38
2022-12-18T18:11:58.655Z,89.21
2022-12-18T18:17:04.664Z,89.35
2022-12-18T18:22:07.524Z,88.98
2022-12-18T18:27:10.383Z,88.55
2022-12-18T18:32:12.998Z,87.80
2022-12-18T18:37:15.475Z,86.76
2022-12-18T18:42:17.942Z,86.71
2022-12-18T18:47:20.948Z,87.04
2022-12-18T18:52:23.590Z,87.27
2022-12-18T18:57:30.294Z,87.14
2022-12-18T19:02:33.364Z,86.95
2022-12-18T19:07:36.025Z,86.69
2022-12-18T19:12:41.517Z,86.98
2022-12-18T19:17:46.951Z,87.15
2022-12-18T19:22:54.988Z,87.39
2022-12-18T19:27:58.323Z,87.61
2022-12-18T19:33:09.756Z,87.47
2022-12-18T19:38:23.271Z,87.57
2022-12-18T19:43:25.921Z,87.82
2022-12-18T19:48:29.243Z,87.87
2022-12-18T19:53:32.031Z,87.58
2022-12-18T19:58:35.140Z,87.16
2022-12-18T20:03:37.925Z,87.18
2022-12-18T20:08:41.480Z,87.16
2022-12-18T20:13:44.842Z,86.96
2022-12-18T20:18:49.064Z,86.46
2022-12-18T20:23:52.458Z,85.80
2022-12-18T20:28:55.801Z,85.75
2022-12-18T20:34:01.484Z,85.93
2022-12-18T20:39:06.541Z,85.70
2022-12-18T20:44:21.772Z,85.66
2022-12-18T20:49:27.310Z,85.83
2022-12-18T20:54:29.969Z,86.01
2022-12-18T20:59:32.647Z,85.96
2022-12-18T21:04:35.141Z,85.76
2022-12-18T21:09:38.650Z,85.84
2022-12-18T21:14:42.816Z,85.96
2022-12-18T21:19:45.278Z,85.64
2022-12-18T21:24:48.899Z,85.20
2022-12-18T21:29:52.247Z,84.98
2022-12-18T21:34:55.235Z,85.33
2022-12-18T21:39:57.725Z,84.88
2022-12-18T21:45:00.372Z,84.95
2022-12-18T21:50:03.143Z,85.04
2022-12-18T21:55:09.341Z,85.52
2022-12-18T22:00:18.752Z,85.82
2022-12-18T22:05:22.326Z,85.93
2022-12-18T22:10:24.795Z,86.04
2022-12-18T22:15:27.349Z,86.01
2022-12-18T22:20:30.270Z,85.61
2022-12-18T22:25:33.988Z,85.37
2022-12-18T22:30:37.706Z,85.29
2022-12-18T22:35:40.261Z,85.10
2022-12-18T22:40:43.625Z,84.85
2022-12-18T22:45:47.263Z,84.36
2022-12-18T22:50:49.865Z,83.91
2022-12-18T22:56:00.463Z,83.95
2022-12-18T23:01:03.046Z,83.87
2022-12-18T23:06:06.977Z,83.96
2022-12-18T23:11:10.700Z,83.92
2022-12-18T23:16:16.413Z,84.52
2022-12-18T23:21:20.644Z,84.66
2022-12-18T23:26:25.396Z,84.82
2022-12-18T23:31:30.633Z,84.72
2022-12-18T23:36:43.883Z,84.74
2022-12-18T23:41:49.187Z,84.87
2022-12-18T23:46:51.800Z,85.01
2022-12-18T23:51:55.031Z,84.86
2022-12-18T23:56:57.544Z,84.73
